Photometre #795[NE_1.6] Beijing-CAMS AOT

File : 20200928_795.hum

28/09/2020,00:04:41,TEMP=19.7,BA=5.52,STAT.A=16.5,ExtBa=12.11
28/09/2020,00:14:16,TEMP=20.2,BA=5.52,STAT.A=16.5,ExtBa=12.09
28/09/2020,00:18:21,TEMP=20.5,BA=5.52,STAT.D=16.5,ExtBa=12.07
28/09/2020,00:21:21,TEMP=20.8,BA=5.40,STAT.D=16.5,ExtBa=12.06
28/09/2020,00:24:21,TEMP=21.0,BA=5.40,STAT.D=16.5,ExtBa=12.05
28/09/2020,00:26:17,TEMP=21.4,BA=5.40,STAT.A=16.0,ExtBa=12.04
28/09/2020,00:30:21,TEMP=21.4,BA=5.48,STAT.D=16.5,ExtBa=12.05
28/09/2020,00:33:21,TEMP=21.7,BA=5.48,STAT.D=16.5,ExtBa=12.05
28/09/2020,00:36:21,TEMP=21.9,BA=5.48,STAT.D=16.5,ExtBa=12.05
28/09/2020,00:39:21,TEMP=22.2,BA=5.48,STAT.D=16.5,ExtBa=12.05
28/09/2020,00:41:16,TEMP=22.5,BA=5.28,STAT.A=16.0,ExtBa=12.04
28/09/2020,00:45:21,TEMP=22.5,BA=5.28,STAT.D=16.5,ExtBa=12.06
28/09/2020,00:48:21,TEMP=22.8,BA=5.28,STAT.D=16.5,ExtBa=12.05
28/09/2020,00:51:21,TEMP=23.0,BA=5.36,STAT.D=16.5,ExtBa=12.05
28/09/2020,00:54:21,TEMP=23.2,BA=5.36,STAT.D=16.5,ExtBa=12.06
28/09/2020,00:57:21,TEMP=23.4,BA=5.36,STAT.D=16.5,ExtBa=12.06
28/09/2020,00:59:16,TEMP=23.7,BA=5.36,STAT.B=16.5,ExtBa=12.05
28/09/2020,01:08:50,TEMP=24.3,BA=5.28,STAT.F,ExtBa=10.11
28/09/2020,01:23:52,TEMP=25.5,BA=5.24,STAT.D=16.5,ExtBa=10.06
28/09/2020,01:27:21,TEMP=25.6,BA=5.24,STAT.D=16.5,ExtBa=10.09
28/09/2020,01:30:21,TEMP=25.8,BA=5.36,STAT.D=16.5,ExtBa=10.10
28/09/2020,01:33:21,TEMP=26.0,BA=5.36,STAT.D=16.5,ExtBa=10.10
28/09/2020,01:35:41,TEMP=26.2,BA=5.36,STAT.D=16.5,ExtBa=10.08
28/09/2020,01:39:21,TEMP=26.3,BA=5.36,STAT.D=16.5,ExtBa=10.10
28/09/2020,01:42:21,TEMP=26.5,BA=5.24,STAT.D=16.5,ExtBa=10.10
28/09/2020,01:45:21,TEMP=26.7,BA=5.24,STAT.D=16.5,ExtBa=10.11
28/09/2020,01:48:21,TEMP=26.8,BA=5.24,STAT.D=16.5,ExtBa=10.09
28/09/2020,01:50:41,TEMP=27.0,BA=5.28,STAT.D=16.5,ExtBa=10.08
28/09/2020,01:54:22,TEMP=27.0,BA=5.28,STAT.D=17.5,ExtBa=10.12
28/09/2020,01:57:21,TEMP=27.1,BA=5.28,STAT.D=17.5,ExtBa=10.11
28/09/2020,02:00:21,TEMP=27.2,BA=5.36,STAT.D=17.5,ExtBa=10.10
28/09/2020,02:03:22,TEMP=27.2,BA=5.36,STAT.D=17.5,ExtBa=10.10
28/09/2020,02:05:43,TEMP=27.3,BA=5.36,STAT.F,ExtBa=10.09
28/09/2020,02:21:40,TEMP=27.6,BA=5.20,STAT.D=17.5,ExtBa=10.19
28/09/2020,02:24:22,TEMP=27.6,BA=5.20,STAT.D=17.5,ExtBa=10.15
28/09/2020,02:27:22,TEMP=27.7,BA=5.20,STAT.D=17.5,ExtBa=10.15
28/09/2020,02:30:22,TEMP=28.0,BA=5.32,STAT.D=17.5,ExtBa=10.15
28/09/2020,02:33:22,TEMP=28.4,BA=5.32,STAT.D=17.5,ExtBa=10.14
28/09/2020,02:35:42,TEMP=28.7,BA=5.32,STAT.D=17.5,ExtBa=10.13
28/09/2020,02:39:22,TEMP=28.7,BA=5.32,STAT.D=17.5,ExtBa=10.14
28/09/2020,02:42:22,TEMP=29.0,BA=5.20,STAT.D=17.5,ExtBa=10.15
28/09/2020,02:45:22,TEMP=29.1,BA=5.20,STAT.D=17.5,ExtBa=10.13
28/09/2020,02:50:42,TEMP=29.1,BA=5.32,STAT.D=17.5,ExtBa=10.16
28/09/2020,02:54:22,TEMP=29.2,BA=5.32,STAT.D=17.5,ExtBa=10.13
28/09/2020,02:57:22,TEMP=29.4,BA=5.32,STAT.D=17.5,ExtBa=10.12
28/09/2020,03:00:22,TEMP=29.6,BA=5.32,STAT.D=17.5,ExtBa=10.12
28/09/2020,03:03:22,TEMP=29.7,BA=5.32,STAT.D=17.5,ExtBa=10.13
28/09/2020,03:05:43,TEMP=29.7,BA=5.32,STAT.F,ExtBa=10.10
28/09/2020,03:23:51,TEMP=29.5,BA=5.12,STAT.D=17.5,ExtBa=10.69
28/09/2020,03:35:42,TEMP=29.9,BA=5.32,STAT.D=17.5,ExtBa=10.25
28/09/2020,03:48:22,TEMP=30.2,BA=5.32,STAT.D=17.5,ExtBa=10.24
28/09/2020,03:51:04,TEMP=30.2,BA=5.16,STAT.D=17.5,ExtBa=10.15
28/09/2020,04:03:22,TEMP=29.8,BA=5.32,STAT.D=18.0,ExtBa=10.24
28/09/2020,04:05:44,TEMP=30.2,BA=5.32,STAT.F,ExtBa=10.22
28/09/2020,04:18:22,TEMP=29.2,BA=5.20,STAT.D=18.0,ExtBa=10.25
28/09/2020,04:20:42,TEMP=29.2,BA=5.24,STAT.D=18.0,ExtBa=10.21
28/09/2020,04:24:22,TEMP=29.2,BA=5.24,STAT.D=18.0,ExtBa=10.18
28/09/2020,04:27:22,TEMP=29.4,BA=5.24,STAT.D=17.5,ExtBa=10.19
28/09/2020,04:35:42,TEMP=29.3,BA=5.28,STAT.D=18.0,ExtBa=10.21
28/09/2020,04:39:22,TEMP=29.4,BA=5.28,STAT.D=17.5,ExtBa=10.20
28/09/2020,04:42:22,TEMP=29.5,BA=5.16,STAT.D=17.5,ExtBa=10.15
28/09/2020,04:45:22,TEMP=29.2,BA=5.16,STAT.D=17.5,ExtBa=10.18
28/09/2020,04:48:22,TEMP=29.1,BA=5.16,STAT.D=17.5,ExtBa=10.18
28/09/2020,04:50:42,TEMP=29.1,BA=5.16,STAT.D=17.5,ExtBa=10.14
28/09/2020,04:54:22,TEMP=28.8,BA=5.16,STAT.D=18.0,ExtBa=10.18
28/09/2020,04:57:22,TEMP=28.9,BA=5.16,STAT.D=17.5,ExtBa=10.17
28/09/2020,05:00:22,TEMP=29.0,BA=5.32,STAT.D=17.5,ExtBa=10.15
28/09/2020,05:03:22,TEMP=29.1,BA=5.32,STAT.D=17.5,ExtBa=10.16
28/09/2020,05:05:43,TEMP=29.4,BA=5.32,STAT.F,ExtBa=10.14
28/09/2020,05:20:42,TEMP=29.5,BA=5.24,STAT.D=17.5,ExtBa=10.12
28/09/2020,05:24:22,TEMP=29.3,BA=5.24,STAT.D=17.5,ExtBa=10.14
28/09/2020,05:27:22,TEMP=29.3,BA=5.24,STAT.D=17.5,ExtBa=10.14
28/09/2020,05:30:22,TEMP=29.4,BA=5.28,STAT.D=17.5,ExtBa=10.14
28/09/2020,05:33:22,TEMP=29.5,BA=5.28,STAT.D=17.5,ExtBa=10.12
28/09/2020,05:35:42,TEMP=29.5,BA=5.28,STAT.D=17.5,ExtBa=10.11
28/09/2020,05:39:22,TEMP=29.4,BA=5.28,STAT.D=17.5,ExtBa=10.14
28/09/2020,05:42:22,TEMP=29.2,BA=5.12,STAT.D=17.5,ExtBa=10.13
28/09/2020,05:45:22,TEMP=29.2,BA=5.12,STAT.D=17.5,ExtBa=10.14
28/09/2020,05:48:22,TEMP=29.1,BA=5.12,STAT.D=17.5,ExtBa=10.13
28/09/2020,05:50:42,TEMP=29.0,BA=5.20,STAT.D=17.5,ExtBa=10.13
28/09/2020,05:54:22,TEMP=28.7,BA=5.20,STAT.D=18.0,ExtBa=10.14
28/09/2020,05:57:22,TEMP=28.5,BA=5.20,STAT.D=17.5,ExtBa=10.14
28/09/2020,06:00:21,TEMP=28.4,BA=5.28,STAT.D=17.5,ExtBa=10.14
28/09/2020,06:03:21,TEMP=28.3,BA=5.28,STAT.D=17.5,ExtBa=10.15
28/09/2020,06:05:43,TEMP=28.3,BA=5.28,STAT.F,ExtBa=10.13
28/09/2020,06:20:41,TEMP=28.0,BA=5.28,STAT.D=17.5,ExtBa=10.12
28/09/2020,06:24:21,TEMP=28.0,BA=5.28,STAT.D=17.5,ExtBa=10.14
28/09/2020,06:27:21,TEMP=28.1,BA=5.28,STAT.D=17.5,ExtBa=10.14
28/09/2020,06:30:21,TEMP=28.0,BA=5.28,STAT.D=17.5,ExtBa=10.14
28/09/2020,06:33:21,TEMP=27.9,BA=5.28,STAT.D=17.5,ExtBa=10.14
28/09/2020,06:35:41,TEMP=27.9,BA=5.28,STAT.D=17.5,ExtBa=10.12
28/09/2020,06:39:21,TEMP=27.7,BA=5.28,STAT.D=17.5,ExtBa=10.14
28/09/2020,06:42:21,TEMP=27.5,BA=5.12,STAT.D=17.5,ExtBa=10.14
28/09/2020,06:45:21,TEMP=27.3,BA=5.12,STAT.D=17.5,ExtBa=10.14
28/09/2020,06:48:21,TEMP=27.2,BA=5.12,STAT.D=17.5,ExtBa=10.14
28/09/2020,06:51:41,TEMP=27.1,BA=5.12,STAT.D=17.5,ExtBa=10.26
28/09/2020,07:03:21,TEMP=26.3,BA=5.28,STAT.D=18.0,ExtBa=10.22
28/09/2020,07:05:43,TEMP=26.4,BA=5.28,STAT.F,ExtBa=10.20
28/09/2020,07:13:32,TEMP=26.0,BA=5.28,STAT.B=18.0,ExtBa=10.24
28/09/2020,07:24:21,TEMP=25.6,BA=5.28,STAT.D=17.5,ExtBa=10.23
28/09/2020,07:31:30,TEMP=25.5,BA=5.36,STAT.A=17.5,ExtBa=10.23
28/09/2020,07:45:21,TEMP=25.7,BA=5.32,STAT.D=17.5,ExtBa=10.21
28/09/2020,07:47:15,TEMP=26.0,BA=5.32,STAT.A=17.5,ExtBa=10.19
28/09/2020,07:57:08,TEMP=25.6,BA=5.40,STAT.A=17.5,ExtBa=10.21
28/09/2020,08:06:43,TEMP=25.5,BA=5.40,STAT.A=17.5,ExtBa=10.22
28/09/2020,08:12:21,TEMP=25.5,BA=5.28,STAT.D=17.5,ExtBa=10.18
28/09/2020,08:15:11,TEMP=25.7,BA=5.28,STAT.C=17.5,ExtBa=10.09
28/09/2020,08:25:14,TEMP=25.7,BA=5.08,STAT.A=17.5,ExtBa=10.08
28/09/2020,08:27:54,TEMP=25.6,BA=5.08,STAT.A=17.5,ExtBa=10.09
28/09/2020,08:33:14,TEMP=25.3,BA=5.24,STAT.A=17.5,ExtBa=10.13
28/09/2020,08:37:58,TEMP=25.1,BA=5.24,STAT.A=17.5,ExtBa=10.16
28/09/2020,08:42:12,TEMP=25.0,BA=5.24,STAT.B=17.5,ExtBa=10.17
28/09/2020,08:51:02,TEMP=24.8,BA=5.32,STAT.A=17.5,ExtBa=10.21
28/09/2020,08:58:01,TEMP=24.6,BA=5.32,STAT.A=17.5,ExtBa=10.21
28/09/2020,09:03:40,TEMP=24.5,BA=5.32,STAT.A=17.5,ExtBa=10.20
28/09/2020,09:08:22,TEMP=24.4,BA=5.32,STAT.A=17.5,ExtBa=10.19
28/09/2020,09:12:19,TEMP=24.4,BA=5.24,STAT.A=17.5,ExtBa=10.19
28/09/2020,09:15:41,TEMP=24.4,BA=5.24,STAT.A=17.5,ExtBa=10.18
28/09/2020,22:56:22,TEMP=24.6,BA=5.56,STAT.h
28/09/2020,22:57:01,TEMP=24.6,BA=5.56,STAT.h
28/09/2020,22:59:44,TEMP=24.6,BA=5.56,STAT.h
28/09/2020,23:00:01,TEMP=24.6,BA=5.56,STAT.h
28/09/2020,23:03:01,TEMP=24.6,BA=5.56,STAT.h
28/09/2020,23:03:42,TEMP=24.6,BA=5.56,STAT.h
28/09/2020,23:06:01,TEMP=24.6,BA=5.56,STAT.h
28/09/2020,23:08:24,TEMP=24.6,BA=5.56,STAT.h
28/09/2020,23:09:01,TEMP=24.6,BA=5.56,STAT.h
28/09/2020,23:12:01,TEMP=24.6,BA=5.56,STAT.h
28/09/2020,23:14:04,TEMP=24.6,BA=5.56,STAT.h
28/09/2020,23:15:01,TEMP=24.6,BA=5.56,STAT.h
28/09/2020,23:18:01,TEMP=24.6,BA=5.56,STAT.h
28/09/2020,23:21:01,TEMP=24.6,BA=5.56,STAT.h
28/09/2020,23:21:04,TEMP=24.6,BA=5.56,STAT.h
28/09/2020,23:24:01,TEMP=24.6,BA=5.56,STAT.h
28/09/2020,23:27:01,TEMP=24.6,BA=5.56,STAT.h
28/09/2020,23:29:55,TEMP=24.6,BA=5.56,STAT.h
28/09/2020,23:34:09,TEMP=24.6,BA=5.40,STAT.h
28/09/2020,23:36:01,TEMP=24.6,BA=5.40,STAT.h
28/09/2020,23:38:54,TEMP=24.6,BA=5.40,STAT.h
28/09/2020,23:39:01,TEMP=24.6,BA=5.40,STAT.h
28/09/2020,23:42:01,TEMP=24.6,BA=5.56,STAT.h
28/09/2020,23:44:16,TEMP=24.6,BA=5.56,STAT.h
28/09/2020,23:45:01,TEMP=24.6,BA=5.56,STAT.h
28/09/2020,23:48:01,TEMP=24.6,BA=5.56,STAT.h
28/09/2020,23:50:21,TEMP=24.6,BA=5.56,STAT.h
28/09/2020,23:51:01,TEMP=24.6,BA=5.56,STAT.h
28/09/2020,23:54:01,TEMP=24.6,BA=5.56,STAT.h
28/09/2020,23:57:05,TEMP=24.6,BA=5.56,STAT.h
28/09/2020,23:57:22,TEMP=24.6,BA=5.56,STAT.h